Terminal Aerodrome Forecast
Issued by NWS Austin/San Antonio, TX

Home | Current Version | Previous Version | Text Only | Print | Product List | Glossary On
Versions: 1 2 3 4 5 6 7 8 9 10 11 12 13 14 15 16 17 18 19 20 21 22 23 24
000
FTUS44 KEWX 251728
TAFDRT
TAF
KDRT 251728Z 2518/2618 12011KT P6SM SCT040
     FM252000 14012KT P6SM SKC
     FM260300 10008KT P6SM SKC
     FM260900 10006KT P6SM BKN020
     FM261200 10007KT P6SM OVC010=

USA.gov is the U.S. government's official web portal to all federal, state and local government web resources and services.